»·PEaware :: N982YR KTOA-KCRQ

N982YR :: KTOA-KCRQ

FLIGHT INFORMATION

Flight Status: Arrived
Operator: Privately registered:
United States
More flights under this callsign
Pilot: Anonymous 15639 (15639)
Aircraft: CESSNA 172 SKYHAWK
(C172)
More flights by this aircraft type
Origin: KTOA Zamperini
United States
Destination: KCRQ McClellan-Palomar
United States
More flights between these airports :: More routes between these airports
Route: LIMBO V64 V363 DANAH V23 OCN
File this flight plan on PilotEdge
Remarks: TEC route SCTP11
Altitude:
(Current/Filed)
5,000ft
Speed:
(Current/Filed)
120kts
Departed: 27-Sep-18 09:29 AM
Arrived: 27-Sep-18 10:29 AM
Distance/Time
Traveled:
67nm/1:00
Distance/Time
To Go:
Arrived

Flight Plot

Page will automatically refresh every two minutes.


Map Options




Map Legend


Flown Route
Filed Route
Departure Airport
Arrival Airport
Navaid (VOR, NDB)
Fix

Horizontal Profiles

Position Reports

Time Latitude Longitude Heading Altitude Ground
Speed
27-Sep-18 09:11 33.803347 -118.344052 39 107ft 0kts
27-Sep-18 09:12 33.803347 -118.344052 39 107ft 0kts
27-Sep-18 09:13 33.803347 -118.344052 39 107ft 0kts
27-Sep-18 09:14 33.803347 -118.344051 39 107ft 0kts
27-Sep-18 09:15 33.803347 -118.344051 39 107ft 0kts
27-Sep-18 09:16 33.803347 -118.344051 39 107ft 0kts
27-Sep-18 09:17 33.803347 -118.344051 39 107ft 0kts
27-Sep-18 09:18 33.803347 -118.344051 39 107ft 0kts
27-Sep-18 09:19 33.803347 -118.344051 39 107ft 0kts
27-Sep-18 09:20 33.803347 -118.344051 39 107ft 0kts
27-Sep-18 09:21 33.803347 -118.344051 39 107ft 0kts
27-Sep-18 09:22 33.803347 -118.344051 39 107ft 0kts
27-Sep-18 09:23 33.803295 -118.343732 124 107ft 5kts
27-Sep-18 09:24 33.802670 -118.342520 42 107ft 0kts
27-Sep-18 09:25 33.803029 -118.341986 89 107ft 0kts
27-Sep-18 09:26 33.801643 -118.339982 127 107ft 12kts
27-Sep-18 09:27 33.799765 -118.337141 127 107ft 7kts
27-Sep-18 09:28 33.799785 -118.336808 36 107ft 0kts
27-Sep-18 09:29 33.799785 -118.336808 36 107ft 0kts
27-Sep-18 09:30 33.800180 -118.336508 3 107ft 5kts
27-Sep-18 09:31 33.808264 -118.347249 311 538ft 66kts
27-Sep-18 09:32 33.821206 -118.364364 307 1364ft 72kts
27-Sep-18 09:33 33.834712 -118.382744 305 2144ft 77kts
27-Sep-18 09:34 33.850240 -118.402013 307 2871ft 81kts
27-Sep-18 09:35 33.866393 -118.423467 308 3483ft 92kts
27-Sep-18 09:36 33.860149 -118.439023 178 4056ft 83kts
27-Sep-18 09:37 33.836821 -118.440971 185 4601ft 84kts
27-Sep-18 09:38 33.812983 -118.443667 184 5000ft 96kts
27-Sep-18 09:39 33.784444 -118.447057 186 5000ft 105kts
27-Sep-18 09:40 33.760851 -118.435296 95 5001ft 122kts
27-Sep-18 09:41 33.763124 -118.393758 90 5000ft 125kts
27-Sep-18 09:42 33.765669 -118.351831 90 5009ft 125kts
27-Sep-18 09:43 33.756065 -118.313972 121 5009ft 120kts
27-Sep-18 09:44 33.740430 -118.278261 121 5009ft 121kts
27-Sep-18 09:45 33.727315 -118.241036 117 4993ft 121kts
27-Sep-18 09:46 33.710230 -118.207623 117 5009ft 116kts
27-Sep-18 09:47 33.694384 -118.173742 116 5009ft 116kts
27-Sep-18 09:48 33.678960 -118.139601 116 5001ft 116kts
27-Sep-18 09:49 33.663691 -118.105480 116 5000ft 116kts
27-Sep-18 09:50 33.648456 -118.071364 116 5000ft 116kts
27-Sep-18 09:51 33.633237 -118.037290 116 5000ft 116kts
27-Sep-18 09:52 33.618043 -118.003189 116 5000ft 116kts
27-Sep-18 09:53 33.602827 -117.969123 116 4999ft 116kts
27-Sep-18 09:54 33.587619 -117.935010 116 4999ft 116kts
27-Sep-18 09:55 33.572368 -117.900989 116 4999ft 116kts
27-Sep-18 09:56 33.557074 -117.866943 116 4999ft 116kts
27-Sep-18 09:57 33.541774 -117.832924 116 4999ft 116kts
27-Sep-18 09:58 33.526352 -117.798963 119 5005ft 115kts
27-Sep-18 09:59 33.510285 -117.765676 114 4999ft 115kts
27-Sep-18 10:00 33.495687 -117.731421 115 4999ft 115kts
27-Sep-18 10:01 33.480107 -117.697946 128 4998ft 116kts
27-Sep-18 10:02 33.457153 -117.670395 132 4999ft 116kts
27-Sep-18 10:03 33.433911 -117.643144 131 5017ft 118kts
27-Sep-18 10:04 33.410063 -117.615240 131 4999ft 121kts
27-Sep-18 10:05 33.386385 -117.587544 138 5007ft 117kts
27-Sep-18 10:06 33.363068 -117.560326 138 5008ft 117kts
27-Sep-18 10:07 33.340271 -117.532693 119 5006ft 119kts
27-Sep-18 10:08 33.335027 -117.492719 101 5008ft 122kts
27-Sep-18 10:09 33.330684 -117.452478 101 5008ft 122kts
27-Sep-18 10:10 33.326337 -117.412150 101 5008ft 122kts
27-Sep-18 10:11 33.321994 -117.371802 101 5008ft 122kts
27-Sep-18 10:12 33.317640 -117.331611 101 4999ft 121kts
27-Sep-18 10:13 33.313192 -117.291814 101 4999ft 119kts
27-Sep-18 10:14 33.308640 -117.252644 101 4999ft 118kts
27-Sep-18 10:15 33.303760 -117.213677 101 5018ft 119kts
27-Sep-18 10:16 33.298755 -117.174478 101 5018ft 119kts
27-Sep-18 10:17 33.293764 -117.135341 101 5018ft 119kts
27-Sep-18 10:18 33.288779 -117.096198 101 5017ft 119kts
27-Sep-18 10:19 33.274019 -117.064441 151 4871ft 116kts
27-Sep-18 10:20 33.245551 -117.046075 152 4179ft 116kts
27-Sep-18 10:21 33.217569 -117.027486 150 3704ft 112kts
27-Sep-18 10:22 33.190830 -117.036415 219 3554ft 114kts
27-Sep-18 10:23 33.166578 -117.061600 221 3529ft 113kts
27-Sep-18 10:24 33.158115 -117.097057 258 3181ft 112kts
27-Sep-18 10:25 33.151961 -117.133220 255 2853ft 111kts
27-Sep-18 10:26 33.146007 -117.170085 258 2207ft 111kts
27-Sep-18 10:27 33.141177 -117.199964 255 1656ft 75kts
27-Sep-18 10:28 33.137261 -117.224193 259 1250ft 75kts
27-Sep-18 10:29 33.133357 -117.248639 259 803ft 74kts
27-Sep-18 10:30 33.129633 -117.271539 259 371ft 60kts
27-Sep-18 10:31 33.127688 -117.279615 168 335ft 6kts
27-Sep-18 10:32 33.127644 -117.278700 78 335ft 10kts
27-Sep-18 10:33 33.127931 -117.275249 168 335ft 6kts
27-Sep-18 10:34 33.127869 -117.274887 166 335ft 0kts

Navigation Log

Ident Type
1. KTOA Airport
2. LIMBO Fix
3. DANAH Fix
4. KELPS Fix
5. OCN Navaid
6. KCRQ Airport